Date,TemperatureHighF,TemperatureAvgF,TemperatureLowF,DewpointHighF,DewpointAvgF,DewpointLowF,HumidityHigh,HumidityAvg,HumidityLow,PressureMaxIn,PressureMinIn,WindSpeedMaxMPH,WindSpeedAvgMPH,GustSpeedMaxMPH,PrecipitationSumIn
2013-1-1,79,62,50,61,56,49,98,82,53,30.23,30.03,9,0,10,0.00
2013-1-2,82,66,53,68,62,52,98,87,60,30.06,29.97,7,1,8,0.00
2013-1-3,67,62,55,64,60,54,98,95,90,30.21,30.03,10,1,10,0.11
2013-1-4,58,55,51,57,53,50,97,94,89,30.31,30.18,8,1,8,0.07
2013-1-5,70,59,47,60,53,45,94,82,67,30.33,30.20,10,1,10,0.00
2013-1-6,82,66,57,68,61,55,93,86,60,30.23,30.06,7,0,9,0.03
2013-1-7,68,60,52,58,54,47,95,81,68,30.25,30.14,11,2,11,0.05
2013-1-8,80,68,58,70,64,56,98,88,66,30.24,30.14,10,2,10,0.00
2013-1-9,82,73,67,72,68,66,98,87,65,30.31,30.19,8,1,8,0.00
2013-1-10,83,73,66,71,66,62,98,83,52,30.32,30.22,10,1,10,0.00
2013-1-11,84,70,59,71,64,58,99,83,53,30.26,30.15,8,1,8,0.00
2013-1-12,82,69,57,70,62,56,99,81,54,30.19,30.09,7,1,8,0.00
2013-1-13,82,71,62,68,64,61,96,81,57,30.17,30.06,5,0,6,0.00
2013-1-14,82,70,61,68,63,60,98,81,52,30.19,30.10,7,0,7,0.00
2013-1-15,83,71,60,70,63,59,98,79,51,30.15,30.04,7,0,7,0.00
2013-1-16,83,69,60,67,62,57,98,80,45,30.11,29.99,7,0,7,0.00
2013-1-17,74,60,48,68,56,39,98,87,66,30.14,29.99,16,2,19,0.01
2013-1-18,65,51,38,53,44,34,84,76,65,30.32,30.14,17,2,17,0.00
2013-1-19,74,61,49,60,54,46,93,80,60,30.32,30.15,13,2,13,0.00
2013-1-20,74,64,57,61,57,52,95,80,60,30.20,30.06,7,1,7,0.00
2013-1-21,75,64,56,58,55,50,88,73,53,30.11,30.00,6,0,7,0.00
2013-1-22,62,55,44,50,40,34,88,60,36,30.29,30.08,9,1,9,0.00
2013-1-23,67,51,36,41,36,31,92,63,27,30.39,30.29,8,0,8,0.00
2013-1-24,75,55,39,54,47,38,97,76,42,30.33,30.22,10,1,10,0.00
2013-1-25,77,60,48,59,50,45,98,74,39,30.32,30.17,7,0,7,0.00
2013-1-26,78,60,46,60,53,44,98,81,50,30.28,30.16,8,0,8,0.00
2013-1-27,78,63,51,63,57,50,98,83,51,30.33,30.22,12,1,12,0.01
2013-1-28,81,68,60,65,62,58,96,81,56,30.34,30.22,9,1,9,0.00
2013-1-29,84,71,60,70,64,59,98,82,54,30.26,30.08,10,1,10,0.00
2013-1-30,86,74,65,67,65,63,95,76,51,30.10,29.86,10,1,13,0.00
2013-1-31,71,55,42,66,40,21,95,62,20,30.25,29.87,12,2,19,0.06
2013-2-1,70,50,35,41,33,26,86,59,20,30.37,30.24,9,1,9,0.00
2013-2-2,73,54,39,45,37,31,87,57,24,30.33,30.15,6,0,6,0.00
2013-2-3,71,52,36,53,40,32,93,68,25,30.20,30.05,11,1,12,0.00
2013-2-4,70,52,36,48,38,33,98,66,28,30.14,30.05,5,0,5,0.00
2013-2-5,78,58,38,55,46,36,97,68,38,30.11,30.00,8,0,8,0.00
2013-2-6,75,65,58,62,58,53,91,78,59,30.13,30.03,8,1,8,0.00
2013-2-7,80,69,59,66,63,58,97,82,57,30.08,29.83,10,1,10,0.06
2013-2-8,79,66,54,66,60,53,96,80,51,30.09,29.87,11,2,11,0.00
2013-2-9,74,61,52,57,53,50,98,77,50,30.22,30.08,11,2,11,0.01
2013-2-10,78,65,52,60,56,50,94,73,49,30.27,30.15,13,1,13,0.00
2013-2-11,84,70,58,64,61,56,96,76,47,30.20,30.06,9,1,10,0.00
2013-2-12,86,71,60,70,64,59,98,80,49,30.10,29.91,8,1,8,0.00
2013-2-13,82,70,63,70,67,60,96,90,68,29.96,29.82,7,1,12,0.38
2013-2-14,65,60,52,61,57,51,96,90,74,30.08,29.93,7,1,7,0.31
2013-2-15,71,57,48,52,48,43,95,76,41,30.10,29.96,6,1,6,0.00
2013-2-16,67,53,44,49,42,25,96,69,40,30.16,29.93,16,2,16,0.00
2013-2-17,55,43,30,29,20,10,72,45,17,30.36,30.16,9,1,9,0.00
2013-2-18,68,49,27,46,35,24,92,62,35,30.39,30.22,11,1,11,0.00
2013-2-19,80,62,44,58,52,42,96,73,42,30.24,30.05,10,1,11,0.00
2013-2-20,74,63,52,60,53,48,94,70,45,30.16,30.03,8,1,8,0.00
2013-2-21,84,65,49,64,57,47,94,76,48,30.12,29.98,6,0,6,0.00
2013-2-22,89,73,60,68,64,58,97,75,43,30.08,29.97,9,1,9,0.00
2013-2-23,87,74,64,70,66,63,97,79,50,30.00,29.86,10,1,10,0.00
2013-2-24,81,71,65,71,67,61,96,87,67,29.97,29.86,7,1,7,0.00
2013-2-25,88,73,63,71,65,61,97,79,45,29.92,29.75,12,1,12,0.00
2013-2-26,77,69,63,71,65,60,97,88,58,29.86,29.70,13,1,13,0.74
2013-2-27,74,63,52,60,52,47,92,71,41,29.98,29.85,11,1,11,0.00
2013-2-28,74,58,45,54,48,44,98,73,39,30.01,29.88,10,2,15,0.00
2013-3-1,67,52,43,46,40,32,91,67,30,30.03,29.90,11,1,12,0.00
2013-3-2,58,49,40,37,33,25,79,56,31,30.05,29.96,21,3,22,0.00
2013-3-3,53,43,35,33,30,28,81,62,44,30.17,30.01,15,2,15,0.00
2013-3-4,70,48,29,38,29,22,94,56,20,30.24,30.12,8,0,8,0.00
2013-3-5,78,58,38,57,45,35,93,65,35,30.19,29.99,10,1,10,0.00
2013-3-6,68,57,44,62,39,24,93,55,20,30.16,29.91,16,3,16,0.00
2013-3-7,70,51,36,43,36,31,88,60,27,30.24,30.13,6,1,7,0.00
2013-3-8,77,56,37,46,39,30,97,62,19,30.24,30.11,8,1,8,0.00
2013-3-9,77,59,41,52,47,40,97,68,31,30.25,30.14,10,1,10,0.00
2013-3-10,80,65,51,57,54,49,95,69,42,30.19,30.07,13,2,15,0.00
2013-3-11,80,68,54,61,57,52,95,71,47,30.12,29.88,8,1,9,0.00
2013-3-12,72,65,54,66,60,51,94,86,71,30.04,29.83,10,1,10,0.11
2013-3-13,76,59,46,51,40,29,91,57,18,30.18,30.03,11,1,14,0.00
2013-3-14,68,54,42,44,33,24,81,49,20,30.29,30.17,11,1,11,0.00
2013-3-15,77,54,36,45,38,30,97,63,24,30.30,30.13,9,0,9,0.00
2013-3-16,81,60,42,54,43,38,97,62,24,30.18,30.05,9,1,9,0.00
2013-3-17,81,57,47,61,50,43,98,80,34,30.14,30.00,2,0,7,0.06
2013-3-18,81,71,60,67,63,58,96,78,58,30.06,29.89,7,0,7,0.01
2013-3-19,88,72,62,67,62,58,98,73,42,30.04,29.89,7,1,7,0.00
2013-3-20,77,66,56,65,60,54,96,82,64,29.99,29.80,10,1,10,0.66
2013-3-21,73,57,42,56,41,23,97,64,17,29.99,29.87,9,1,10,0.01
2013-3-22,80,60,43,56,46,40,93,64,33,30.03,29.89,12,1,12,0.00
2013-3-23,87,72,57,72,65,52,95,78,56,29.99,29.76,11,1,11,0.00
2013-3-24,80,71,65,73,68,63,95,88,74,29.83,29.58,15,2,16,0.07
2013-3-25,72,62,51,63,44,24,95,57,18,30.05,29.71,13,2,13,0.00
2013-3-26,61,51,41,40,30,21,73,46,24,30.25,30.04,14,2,14,0.00
2013-3-27,66,49,36,39,32,24,81,57,22,30.33,30.21,10,1,10,0.00
2013-3-28,73,55,35,43,35,27,93,55,20,30.31,30.18,9,1,10,0.00
2013-3-29,78,59,39,49,38,30,94,55,19,30.34,30.18,7,0,8,0.00
2013-3-30,82,62,42,54,46,39,93,62,31,30.27,30.10,8,1,10,0.00
2013-3-31,86,68,54,58,52,46,90,63,27,30.17,29.99,5,1,9,0.00
2013-4-1,84,69,58,66,60,54,92,76,45,30.02,29.93,15,1,15,0.00
2013-4-2,88,70,56,62,54,47,95,63,28,30.10,29.99,9,1,10,0.00
2013-4-3,85,70,58,67,61,53,93,77,50,30.10,29.95,7,1,10,0.90
2013-4-4,75,70,66,69,66,63,94,87,71,30.01,29.86,9,1,11,0.07
2013-4-5,78,67,57,67,61,53,93,83,57,30.02,29.79,11,2,11,0.00
2013-4-6,78,64,51,60,54,49,92,73,49,30.15,30.01,13,2,13,0.00
2013-4-7,84,68,56,63,57,54,94,71,39,30.18,30.06,9,1,10,0.00
2013-4-8,86,72,57,65,59,53,94,67,35,30.14,30.05,11,1,11,0.00
2013-4-9,88,74,61,68,62,58,94,70,41,30.17,30.07,10,2,10,0.00
2013-4-10,88,74,58,69,62,56,94,71,42,30.13,29.96,8,1,9,0.00
2013-4-11,92,80,73,72,70,67,89,73,47,29.99,29.79,11,2,11,0.00
2013-4-12,84,76,71,74,71,68,92,84,67,29.90,29.80,10,1,10,0.00
2013-4-13,91,76,66,68,61,48,94,66,27,30.00,29.87,9,1,9,0.00
2013-4-14,90,73,65,73,65,55,91,78,55,29.99,29.83,16,1,16,0.15
2013-4-15,94,77,64,69,64,61,91,68,43,30.09,29.87,7,1,7,0.00
2013-4-16,89,76,66,71,67,63,94,75,52,30.16,30.05,12,2,12,0.00
2013-4-17,86,74,65,70,65,60,95,76,45,30.16,30.04,11,2,13,0.00
2013-4-18,92,77,64,71,65,62,94,70,41,30.07,29.94,12,1,12,0.00
2013-4-19,93,79,69,74,70,67,95,76,48,30.00,29.89,9,1,9,0.74
2013-4-20,76,61,56,70,58,53,93,89,79,30.18,29.95,12,2,12,0.33
2013-4-21,76,66,58,68,62,54,94,86,74,30.17,30.04,11,2,11,1.07
2013-4-22,74,67,62,67,64,59,95,90,77,30.10,30.01,11,2,11,0.01
2013-4-23,82,70,60,64,60,57,94,73,45,30.12,30.03,11,2,12,0.00
2013-4-24,90,71,53,64,57,50,95,66,27,30.15,30.06,8,1,8,0.00
2013-4-25,90,74,59,68,62,57,94,69,36,30.20,30.10,7,0,8,0.00
2013-4-26,90,75,61,68,64,59,94,71,40,30.24,30.15,12,2,12,0.00
2013-4-27,88,75,64,68,63,59,94,71,39,30.24,30.09,14,2,14,0.00
2013-4-28,86,73,62,69,64,61,95,75,50,30.14,29.97,12,2,12,0.00
2013-4-29,89,76,66,68,65,61,91,70,46,30.02,29.89,8,1,8,0.00
2013-4-30,93,75,67,70,65,57,93,74,33,30.01,29.89,10,1,12,0.00
2013-5-1,80,71,67,71,68,65,94,88,67,30.03,29.94,12,2,12,0.08
2013-5-2,70,69,67,68,67,65,95,93,89,29.98,29.82,8,1,8,0.42
2013-5-3,81,70,66,71,67,65,95,90,63,29.82,29.73,16,2,16,0.09
2013-5-4,84,74,67,71,68,65,95,82,60,29.78,29.67,17,2,17,0.04
2013-5-5,80,68,56,67,53,44,93,63,32,29.92,29.75,13,3,13,0.00
2013-5-6,76,65,56,58,54,49,94,69,42,30.00,29.88,12,2,12,0.00
2013-5-7,80,66,51,61,56,50,95,74,44,30.05,29.96,12,1,14,0.00
2013-5-8,85,69,56,64,59,54,95,72,38,30.13,30.02,11,1,11,0.00
2013-5-9,91,73,58,67,61,56,95,69,36,30.15,30.06,8,0,8,0.00
2013-5-10,96,76,61,72,65,59,94,71,37,30.14,29.99,10,1,12,0.00
2013-5-11,92,76,65,73,68,63,94,77,47,30.05,29.96,14,1,18,0.00
2013-5-12,89,76,65,70,66,63,94,73,49,30.04,29.94,13,1,13,0.00
2013-5-13,85,72,59,66,55,43,95,59,25,30.14,29.99,11,1,11,0.00
2013-5-14,86,70,48,57,48,41,88,52,24,30.22,30.11,8,1,9,0.00
2013-5-15,89,74,55,63,56,52,94,60,30,30.22,30.06,8,1,8,0.00
2013-5-16,89,75,60,67,61,55,94,65,32,30.14,30.00,8,1,9,0.00
2013-5-17,91,78,63,69,64,56,92,64,32,30.10,30.02,13,1,13,0.00
2013-5-18,95,80,66,73,68,62,94,70,36,30.12,29.98,10,1,10,0.37
2013-5-19,93,79,71,75,71,67,95,78,49,30.08,29.97,11,1,12,0.00
2013-5-20,92,78,70,72,69,60,92,77,49,30.08,29.99,13,1,13,0.00
2013-5-21,89,75,67,74,69,66,95,83,51,30.03,29.94,13,1,13,0.00
2013-5-22,91,75,67,73,70,65,95,84,50,29.98,29.89,15,0,15,0.00
2013-5-23,95,80,68,75,69,66,95,74,43,29.99,29.90,10,1,10,0.00
2013-5-24,95,81,68,74,67,60,96,66,34,30.09,29.96,11,1,11,0.00
2013-5-25,89,77,65,70,62,56,94,64,39,30.20,30.08,14,2,14,0.00
2013-5-26,88,74,58,65,58,53,94,62,33,30.22,30.12,11,1,11,0.00
2013-5-27,88,76,62,66,62,58,92,66,36,30.18,30.08,12,2,12,0.00
2013-5-28,89,77,64,70,67,61,92,72,49,30.16,30.05,14,2,15,0.00
2013-5-29,89,78,70,74,71,68,95,81,55,30.12,30.05,15,2,15,0.07
2013-5-30,87,78,72,74,72,69,95,81,59,30.12,30.03,16,3,16,0.09
2013-5-31,87,78,70,76,71,68,94,79,61,30.11,30.02,11,3,15,0.08
2013-6-1,90,79,70,75,72,69,95,81,60,30.07,29.96,14,3,14,0.00
2013-6-2,99,81,74,78,73,70,95,80,41,30.02,29.84,16,1,16,0.16
2013-6-3,94,81,72,78,73,70,96,79,51,29.99,29.86,11,1,11,0.01
2013-6-4,94,78,73,76,73,71,95,85,54,30.03,29.92,11,0,13,0.46
2013-6-5,92,77,71,76,72,68,95,85,52,30.01,29.90,12,1,13,0.00
2013-6-6,81,75,72,77,72,70,95,91,77,29.90,29.59,13,2,13,3.15
2013-6-7,92,81,70,76,72,68,95,77,52,29.94,29.73,9,1,11,0.00
2013-6-8,93,77,71,77,72,70,95,86,54,30.09,29.94,7,0,8,0.38
2013-6-9,94,78,70,78,72,68,94,84,52,30.11,30.01,14,1,14,0.43
2013-6-10,94,82,73,77,73,70,91,76,52,30.10,30.00,10,0,10,0.01
2013-6-11,93,79,72,78,71,67,86,79,54,30.08,30.01,13,0,13,0.51
2013-6-12,97,83,71,76,71,66,86,70,43,30.08,29.97,9,1,9,0.00
2013-6-13,96,83,74,77,72,68,84,72,47,30.03,29.88,9,1,11,0.00
2013-6-14,93,82,74,76,72,68,83,73,52,29.93,29.83,11,1,11,0.00
2013-6-15,90,80,72,78,72,66,86,78,65,30.07,29.89,12,2,13,2.90
2013-6-16,94,81,75,77,72,69,83,76,56,30.09,30.00,12,2,12,1.16
2013-6-17,96,84,74,79,73,68,83,71,51,30.07,29.95,9,1,9,0.00
2013-6-18,94,83,72,78,72,66,81,70,51,30.04,29.94,10,1,11,0.06
2013-6-19,94,83,74,78,72,66,79,70,49,30.03,29.93,7,0,8,0.01
2013-6-20,97,81,72,78,70,65,79,70,45,30.09,29.99,12,1,12,0.21
2013-6-21,93,78,70,76,69,64,81,75,53,30.11,30.04,8,0,11,0.46
2013-6-22,95,78,70,77,70,64,83,76,51,30.11,30.06,10,0,10,0.62
2013-6-23,94,81,71,77,71,64,81,72,49,30.14,30.07,12,1,12,0.01
2013-6-24,95,84,75,76,72,67,81,70,45,30.18,30.06,13,1,13,0.00
2013-6-25,95,83,74,77,72,66,81,71,44,30.15,30.02,7,1,10,0.00
2013-6-26,97,82,74,78,71,65,81,70,39,30.08,29.98,15,1,15,0.03
2013-6-27,93,80,70,78,71,63,81,74,54,30.04,29.91,10,0,13,0.01
2013-6-28,92,80,74,78,73,68,82,77,59,29.95,29.81,12,0,12,0.77
2013-6-29,90,80,74,78,72,67,82,77,63,29.86,29.77,12,1,12,0.53
2013-6-30,92,78,74,78,71,66,81,78,61,29.87,29.79,6,0,15,0.23
2013-7-1,86,77,73,76,70,66,82,78,67,30.02,29.83,10,1,10,0.10
2013-7-2,92,78,73,78,71,66,83,79,61,30.08,29.96,12,1,12,0.06
2013-7-3,93,78,73,78,71,67,83,79,61,30.12,30.04,15,1,16,0.40
2013-7-4,91,78,72,78,71,66,84,79,58,30.17,30.07,15,1,15,0.79
2013-7-5,91,80,72,78,72,66,85,78,58,30.15,30.05,13,1,13,0.03
2013-7-6,94,83,74,76,73,69,83,72,52,30.12,30.03,10,2,12,0.00
2013-7-7,92,84,75,76,73,69,83,72,54,30.13,30.02,12,2,12,0.00
2013-7-8,94,84,74,77,73,69,84,71,52,30.16,30.06,9,1,10,0.00
2013-7-9,93,83,72,76,71,66,84,69,47,30.17,30.05,10,1,10,0.00
2013-7-10,96,83,72,76,71,66,84,70,45,30.09,29.94,9,0,9,0.00
2013-7-11,95,81,73,76,72,68,84,76,50,30.02,29.90,6,0,7,0.09
2013-7-12,89,79,73,78,72,68,85,80,63,29.95,29.88,6,0,6,0.07
2013-7-13,92,77,73,76,70,68,86,81,57,29.99,29.89,12,1,14,2.07
2013-7-14,93,79,72,77,72,67,86,80,55,30.08,29.96,16,1,17,0.02
2013-7-15,89,78,71,76,72,67,87,81,61,30.12,30.02,11,1,12,0.18
2013-7-16,91,80,73,77,72,68,86,78,56,30.16,30.10,18,2,18,0.20
2013-7-17,92,81,74,76,72,70,85,76,53,30.17,30.07,9,2,13,0.00
2013-7-18,91,80,74,75,72,69,86,77,55,30.12,30.03,10,1,10,0.00
2013-7-19,91,77,72,77,71,68,87,82,62,30.12,30.03,13,1,13,1.23
2013-7-20,92,77,72,80,72,68,89,83,65,30.10,29.99,9,0,10,1.12
2013-7-21,94,81,71,80,73,68,89,79,59,30.11,30.01,7,0,7,0.02
2013-7-22,93,80,74,79,74,70,87,82,64,30.11,30.04,7,0,7,0.50
2013-7-23,82,76,74,76,71,69,88,86,78,30.08,29.95,9,0,9,0.33
2013-7-24,89,79,72,80,73,67,88,83,70,30.00,29.86,11,1,12,0.60
2013-7-25,88,80,75,77,73,70,86,81,66,29.97,29.85,10,1,10,0.03
2013-7-26,96,82,73,79,74,69,89,76,48,30.00,29.93,8,0,8,0.00
2013-7-27,96,84,74,78,72,66,86,71,40,29.99,29.87,8,1,8,0.00
2013-7-28,93,79,72,78,72,67,86,80,53,30.06,29.93,10,0,10,1.17
2013-7-29,97,83,70,78,72,66,87,72,41,30.15,30.01,6,0,6,0.00
2013-7-30,97,84,74,79,73,69,85,72,45,30.17,30.06,8,0,8,0.00
2013-7-31,96,81,73,79,72,68,87,76,48,30.13,29.99,6,0,8,1.56
2013-8-1,95,79,73,79,72,69,87,80,51,30.05,29.96,9,0,9,0.07
2013-8-2,94,81,72,78,72,67,88,76,53,30.03,29.94,8,0,8,0.03
2013-8-3,92,81,74,80,74,69,87,80,61,30.08,29.99,10,0,10,0.88
2013-8-4,93,81,74,81,75,70,88,82,64,30.07,29.96,10,0,10,0.77
2013-8-5,93,81,75,81,74,70,88,80,59,30.01,29.90,10,0,10,0.80
2013-8-6,95,82,73,81,74,68,87,77,52,29.99,29.88,12,1,12,0.00
2013-8-7,95,82,76,79,75,72,88,79,55,29.97,29.91,12,1,15,0.00
2013-8-8,95,84,77,79,75,70,86,74,49,30.04,29.94,9,1,9,0.00
2013-8-9,95,81,73,78,73,69,89,79,50,30.06,29.97,5,1,12,1.96
2013-8-10,98,83,71,78,73,66,88,74,48,30.12,30.03,6,1,7,0.00
2013-8-11,97,86,76,78,74,68,85,69,42,30.15,30.05,6,0,9,0.00
2013-8-12,96,84,74,80,75,69,86,74,55,30.13,29.98,6,0,6,0.49
2013-8-13,98,84,74,80,75,70,86,77,51,30.04,29.92,11,0,11,1.09
2013-8-14,97,83,75,80,74,70,87,76,52,30.00,29.88,9,0,9,0.02
2013-8-15,98,82,72,81,73,68,87,74,49,30.02,29.90,7,0,8,0.00
2013-8-16,94,82,75,78,74,70,87,77,55,30.04,29.95,5,0,5,0.00
2013-8-17,96,83,76,80,75,71,87,78,54,30.09,29.96,11,1,11,0.01
2013-8-18,94,82,74,78,74,70,90,78,55,30.10,30.00,10,1,12,0.03
2013-8-19,93,82,74,79,74,71,88,78,56,30.08,29.96,9,1,9,0.01
2013-8-20,96,82,75,78,74,71,88,77,51,30.10,29.98,12,1,12,0.20
2013-8-21,93,79,74,79,74,70,89,84,58,30.12,30.03,16,1,17,0.18
2013-8-22,94,79,73,81,74,69,89,84,59,30.10,29.99,17,1,17,1.23
2013-8-23,94,78,71,79,72,67,90,84,58,30.04,29.95,13,1,13,1.30
2013-8-24,93,78,71,80,72,68,90,84,59,30.12,30.00,13,1,14,0.30
2013-8-25,90,78,74,78,73,70,89,84,65,30.17,30.08,11,1,11,0.40
2013-8-26,89,80,74,77,73,70,87,81,66,30.15,30.02,14,2,14,0.05
2013-8-27,90,79,72,75,71,68,89,78,54,30.09,29.99,9,1,10,0.02
2013-8-28,94,83,69,75,70,65,88,68,43,30.06,29.96,6,0,6,0.00
2013-8-29,97,82,71,76,72,68,88,73,44,30.03,29.90,11,0,11,0.00
2013-8-30,98,84,72,78,73,68,88,72,41,29.98,29.86,8,0,8,0.00
2013-8-31,95,82,74,78,74,71,88,78,55,29.96,29.86,4,0,11,0.22
2013-9-1,96,82,72,77,72,68,88,73,48,29.98,29.88,7,0,7,0.00
2013-9-2,96,82,71,78,72,68,89,74,48,30.00,29.90,8,0,8,0.00
2013-9-3,93,82,73,80,74,69,88,78,56,30.01,29.91,7,0,7,0.04
2013-9-4,97,81,72,79,73,68,89,79,51,30.08,29.97,7,0,7,0.06
2013-9-5,98,82,70,78,72,66,91,74,43,30.10,29.99,8,0,8,0.00
2013-9-6,96,78,71,78,72,68,89,82,53,30.05,29.95,12,0,14,1.82
2013-9-7,92,79,70,76,71,67,91,79,51,30.02,29.92,12,1,12,0.01
2013-9-8,92,80,70,75,70,67,91,74,50,29.98,29.88,9,1,9,0.00
2013-9-9,92,79,68,73,68,64,90,72,44,30.05,29.94,9,1,9,0.00
2013-9-10,91,80,72,74,70,65,87,74,42,30.10,30.00,12,2,12,0.00
2013-9-11,93,81,74,76,72,69,88,75,49,30.09,29.99,11,2,11,0.00
2013-9-12,94,80,72,76,72,68,90,77,48,30.03,29.88,16,1,16,0.00
2013-9-13,97,81,70,76,71,67,90,74,42,29.91,29.78,6,0,6,0.00
2013-9-14,95,83,72,77,73,68,89,74,48,29.98,29.82,6,0,6,0.00
2013-9-15,94,82,74,78,74,70,88,78,54,30.07,29.96,10,1,10,0.00
2013-9-16,94,80,73,76,73,70,89,80,50,30.09,29.97,15,1,15,0.08
2013-9-17,91,80,72,77,72,68,89,78,59,30.06,29.96,9,2,12,0.01
2013-9-18,90,79,74,75,72,70,88,80,56,30.05,29.98,16,2,16,0.02
2013-9-19,92,80,73,75,71,69,88,77,51,30.06,29.97,9,2,15,0.00
2013-9-20,92,78,68,71,69,64,89,74,49,30.03,29.90,9,1,9,0.00
2013-9-21,92,79,68,73,69,65,91,74,48,29.94,29.75,4,0,5,0.00
2013-9-22,91,78,74,78,73,70,90,85,62,29.85,29.75,6,0,13,1.38
2013-9-23,84,76,73,78,73,69,90,88,80,29.95,29.83,8,0,8,0.65
2013-9-24,86,76,71,77,72,67,91,86,72,29.95,29.82,22,0,22,2.05
2013-9-25,84,76,71,76,72,67,91,86,73,29.84,29.76,10,0,10,0.08
2013-9-26,91,80,71,78,72,67,90,77,47,29.88,29.76,12,1,13,0.05
2013-9-27,86,76,68,72,69,65,88,79,59,29.97,29.86,13,2,13,0.00
2013-9-28,85,75,69,74,70,66,89,84,66,30.01,29.93,10,1,11,0.09
2013-9-29,88,76,68,73,68,64,89,78,54,30.00,29.90,9,1,9,0.00
2013-9-30,91,76,69,75,69,65,90,79,51,30.01,29.92,9,1,10,0.00
2013-10-1,89,78,71,74,70,66,88,77,57,30.08,29.98,10,1,10,0.00
2013-10-2,90,77,67,71,67,64,89,73,51,30.07,29.99,10,1,10,0.00
2013-10-3,92,76,68,74,69,65,90,79,50,30.08,29.98,6,0,7,0.00
2013-10-4,92,80,72,75,70,67,89,75,47,30.09,29.98,6,0,6,0.00
2013-10-5,92,78,67,74,70,64,92,78,52,30.07,29.95,10,1,10,0.00
2013-10-6,94,80,70,76,71,67,91,76,45,29.99,29.84,6,0,7,0.33
2013-10-7,89,77,73,78,72,69,91,86,67,29.87,29.71,8,0,9,1.53
2013-10-8,86,76,72,77,72,68,91,85,69,29.97,29.77,13,1,13,0.00
2013-10-9,80,71,67,69,66,63,89,84,70,30.05,29.95,9,2,9,0.00
2013-10-10,86,74,63,69,65,60,91,76,49,30.07,29.96,8,0,8,0.00
2013-10-11,88,74,62,72,64,59,92,74,43,30.05,29.93,8,0,9,0.00
2013-10-12,88,74,60,70,62,57,89,69,41,30.05,29.96,7,0,8,0.00
2013-10-13,88,74,62,68,62,57,89,69,41,30.09,29.99,9,0,9,0.00
2013-10-14,86,73,64,69,65,60,88,77,51,30.05,29.94,11,1,13,0.00
2013-10-15,78,72,67,70,67,63,88,86,78,30.01,29.91,6,1,7,0.00
2013-10-16,89,76,69,73,68,65,88,77,48,29.98,29.89,4,0,4,0.00
2013-10-17,90,77,68,74,68,64,89,76,50,29.99,29.88,4,0,4,0.00
2013-10-18,91,78,68,75,70,64,89,76,49,29.99,29.88,6,0,6,0.00
2013-10-19,92,79,71,75,71,67,88,80,52,29.95,29.85,8,0,8,0.04
2013-10-20,87,77,71,74,71,67,88,83,62,29.98,29.86,8,1,8,0.00
2013-10-21,91,78,69,78,71,66,89,82,59,30.00,29.90,8,0,8,0.08
2013-10-22,92,79,73,77,71,67,88,78,51,29.96,29.81,10,0,10,0.01
2013-10-23,82,72,63,69,61,51,89,71,38,30.03,29.81,6,1,9,0.03
2013-10-24,73,62,54,54,50,45,87,65,39,30.18,30.02,6,1,6,0.00
2013-10-25,81,64,49,57,52,46,92,70,38,30.25,30.15,7,0,7,0.00
2013-10-26,78,64,52,57,52,48,88,68,36,30.23,30.10,7,0,7,0.00
2013-10-27,78,64,50,56,50,40,90,66,27,30.16,30.06,10,1,10,0.00
2013-10-28,84,67,50,63,56,47,90,71,38,30.20,30.11,7,0,7,0.00
2013-10-29,83,71,60,67,62,56,88,76,54,30.24,30.15,10,2,10,0.00
2013-10-30,84,72,62,69,64,58,89,77,56,30.24,30.11,11,1,11,0.00
2013-10-31,87,75,64,70,65,60,89,74,46,30.14,29.96,5,0,9,0.01
2013-11-1,89,77,70,72,68,65,87,76,51,30.00,29.85,10,0,10,0.00
2013-11-2,75,68,58,70,64,55,90,87,79,29.98,29.78,7,0,7,0.54
2013-11-3,74,62,54,57,52,45,91,70,37,30.15,29.97,12,1,14,0.01
2013-11-4,79,66,60,64,57,53,87,74,50,30.20,30.12,11,2,16,0.00
2013-11-5,83,72,64,68,64,60,87,78,54,30.18,30.09,17,2,17,0.09
2013-11-6,80,70,63,71,65,59,89,84,69,30.14,30.05,11,1,11,0.01
2013-11-7,80,71,65,70,66,61,89,83,67,30.07,29.96,6,0,6,0.00
2013-11-8,74,66,58,64,58,49,88,77,64,30.15,30.00,13,2,17,0.00
2013-11-9,81,68,57,66,60,54,89,77,57,30.19,30.11,11,1,11,0.00
2013-11-10,82,70,62,68,63,58,88,79,58,30.19,30.08,8,1,8,0.00
2013-11-11,82,70,61,68,62,58,88,79,58,30.18,30.07,9,1,9,0.00
2013-11-12,80,69,62,69,62,55,90,79,64,30.13,30.00,6,0,6,0.01
2013-11-13,65,57,49,55,48,44,83,71,60,30.36,30.10,19,4,20,0.00
2013-11-14,74,59,46,58,51,42,89,76,54,30.34,30.20,16,1,16,0.00
2013-11-15,69,63,56,64,59,52,89,88,82,30.21,30.07,8,0,8,0.28
2013-11-16,73,68,64,69,64,60,88,88,86,30.15,30.05,7,0,7,0.93
2013-11-17,85,74,68,74,69,64,89,83,65,30.09,29.99,5,0,6,0.02
2013-11-18,80,73,66,73,68,62,90,85,74,30.03,29.90,6,0,8,0.00
2013-11-19,76,68,62,66,60,52,90,77,57,30.00,29.89,13,1,13,0.00
2013-11-20,77,68,61,70,64,58,88,86,79,30.13,29.99,8,1,9,0.00
2013-11-21,79,71,66,71,66,62,88,86,76,30.21,30.11,12,2,12,0.00
2013-11-22,82,72,65,71,66,61,89,84,70,30.22,30.11,10,1,10,0.01
2013-11-23,83,71,60,69,63,57,91,78,48,30.12,30.00,6,0,6,0.00
2013-11-24,69,62,56,65,55,48,87,77,66,30.27,30.04,17,3,17,0.00
2013-11-25,75,65,56,60,56,49,83,72,53,30.27,30.08,16,2,18,0.00
2013-11-26,80,72,64,73,67,59,88,84,74,30.08,29.73,9,1,10,0.58
2013-11-27,71,58,41,67,53,35,89,81,69,30.22,29.67,16,3,16,0.33
2013-11-28,63,48,34,50,41,29,85,75,60,30.37,30.22,10,2,10,0.00
2013-11-29,71,57,47,59,51,44,89,80,63,30.40,30.30,13,2,13,0.00
2013-11-30,73,62,54,64,57,50,89,84,71,30.34,30.21,8,2,14,0.00
2013-12-1,73,62,58,64,58,55,90,86,70,30.21,29.98,6,0,6,0.00
2013-12-2,73,62,52,61,56,49,91,83,49,29.98,29.82,8,0,8,0.00
2013-12-3,79,64,50,63,56,47,91,78,54,29.99,29.88,5,0,5,0.00
2013-12-4,82,69,60,70,62,56,89,80,55,30.09,29.96,4,0,4,0.01
2013-12-5,84,71,60,71,64,56,90,79,58,30.17,30.08,6,0,6,0.00
2013-12-6,86,73,63,71,66,59,89,79,56,30.17,30.08,8,0,8,0.00
2013-12-7,86,72,63,70,64,60,88,79,57,30.24,30.13,2,0,5,0.00
2013-12-8,84,71,60,72,64,56,89,78,58,30.24,30.10,9,0,9,0.00
2013-12-9,85,72,61,73,66,58,89,81,61,30.18,30.07,7,0,8,0.00
2013-12-10,85,71,61,70,64,58,89,79,54,30.21,30.05,5,1,12,0.03
2013-12-11,79,66,56,67,59,51,88,79,64,30.27,30.16,9,1,10,0.00
2013-12-12,68,59,48,58,45,29,89,63,25,30.35,30.22,10,1,10,0.00
2013-12-13,73,59,46,56,50,42,89,75,51,30.30,30.12,12,1,12,0.00
2013-12-14,81,70,58,71,64,54,88,82,67,30.12,29.91,9,0,9,0.11
2013-12-15,73,64,56,69,60,51,88,86,77,30.14,29.85,12,1,12,0.82
2013-12-16,62,51,41,51,43,38,90,76,47,30.25,30.14,7,1,7,0.00
2013-12-17,68,52,39,47,42,36,91,73,42,30.28,30.16,7,0,7,0.00
2013-12-18,67,51,38,48,42,36,91,74,41,30.31,30.21,7,0,7,0.00
2013-12-19,74,55,38,59,48,36,92,78,49,30.30,30.18,7,0,7,0.00
2013-12-20,81,65,50,64,57,47,91,77,54,30.22,30.11,7,1,7,0.01
2013-12-21,84,73,64,71,66,60,88,79,59,30.14,30.02,12,1,12,0.00
2013-12-22,86,74,66,72,68,62,89,80,61,30.14,30.05,8,0,8,0.00
2013-12-23,86,75,66,73,68,62,88,80,58,30.17,30.06,7,0,7,0.00
2013-12-24,72,61,49,68,48,33,89,67,32,30.29,30.10,11,2,11,0.02
2013-12-25,72,56,43,59,48,36,89,75,61,30.28,30.17,7,1,9,0.00
2013-12-26,72,60,54,62,55,51,90,85,71,30.25,30.12,11,1,11,0.00
2013-12-27,67,60,55,62,56,51,89,88,83,30.28,30.19,11,2,12,0.00
2013-12-28,75,68,61,70,64,58,89,88,82,30.25,29.99,8,1,10,0.02
2013-12-29,76,70,61,71,66,58,89,88,85,30.01,29.89,7,1,8,0.15
2013-12-30,68,60,54,58,53,48,90,79,49,30.21,29.99,8,1,8,0.00
2013-12-31,69,59,52,53,51,48,89,75,49,30.32,30.17,5,1,9,0.00
2014-1-1,62,58,55,59,55,50,89,88,80,30.28,30.06,9,1,9,0.13
2014-1-2,72,64,56,68,61,52,90,88,85,30.06,29.81,12,1,12,0.46